createdAt,value
2018-09-05T00:00:11.237Z,17.38
2018-09-05T00:01:11.209Z,17.34
2018-09-05T00:02:11.199Z,17.36
2018-09-05T00:03:11.202Z,17.38
2018-09-05T00:04:11.185Z,17.39
2018-09-05T00:05:11.187Z,17.44
2018-09-05T00:06:11.157Z,17.27
2018-09-05T00:07:11.143Z,17.29
2018-09-05T00:08:11.131Z,17.24
2018-09-05T00:09:11.121Z,17.27
2018-09-05T00:10:11.131Z,17.24
2018-09-05T00:11:11.103Z,17.27
2018-09-05T00:12:11.094Z,17.26
2018-09-05T00:13:11.077Z,17.19
2018-09-05T00:14:11.101Z,17.12
2018-09-05T00:15:11.090Z,17.22
2018-09-05T00:16:11.052Z,17.16
2018-09-05T00:17:11.050Z,17.23
2018-09-05T00:18:11.032Z,17.16
2018-09-05T00:19:11.014Z,17.06
2018-09-05T00:20:11.018Z,17.12
2018-09-05T00:21:10.990Z,17.14
2018-09-05T00:22:10.984Z,17.15
2018-09-05T00:23:10.974Z,17.09
2018-09-05T00:24:10.965Z,17.11
2018-09-05T00:25:10.971Z,17.08
2018-09-05T00:26:10.942Z,17.14
2018-09-05T00:27:10.932Z,17.15
2018-09-05T00:28:10.917Z,17.22
2018-09-05T00:29:10.910Z,17.14
2018-09-05T00:30:10.923Z,17.15
2018-09-05T00:31:10.884Z,17.14
2018-09-05T00:32:10.875Z,17.24
2018-09-05T00:33:10.861Z,17.30
2018-09-05T00:34:10.853Z,17.36
2018-09-05T00:35:10.862Z,17.30
2018-09-05T00:36:10.838Z,17.34
2018-09-05T00:37:10.831Z,17.36
2018-09-05T00:38:10.812Z,17.36
2018-09-05T00:39:10.800Z,17.54
2018-09-05T00:40:10.810Z,17.59
2018-09-05T00:41:10.777Z,17.65
2018-09-05T00:42:10.767Z,17.60
2018-09-05T00:43:10.759Z,17.67
2018-09-05T00:44:10.750Z,17.70
2018-09-05T00:45:10.752Z,17.64
2018-09-05T00:46:10.725Z,17.71
2018-09-05T00:47:10.717Z,17.76
2018-09-05T00:48:10.709Z,17.65
2018-09-05T00:49:10.704Z,17.67
2018-09-05T00:50:10.706Z,17.71
2018-09-05T00:51:10.674Z,17.67
2018-09-05T00:52:10.658Z,17.68
2018-09-05T00:53:10.650Z,17.63
2018-09-05T00:54:10.641Z,17.60
2018-09-05T00:55:10.653Z,17.56
2018-09-05T00:56:10.625Z,17.57
2018-09-05T00:57:10.612Z,17.52
2018-09-05T00:58:10.598Z,17.49
2018-09-05T00:59:10.585Z,17.57
2018-09-05T01:00:10.592Z,17.54
2018-09-05T01:01:10.577Z,17.52
2018-09-05T01:02:10.554Z,17.39
2018-09-05T01:03:10.542Z,17.36
2018-09-05T01:04:10.528Z,17.45
2018-09-05T01:05:10.536Z,17.44
2018-09-05T01:06:10.510Z,17.38
2018-09-05T01:07:10.503Z,17.45
2018-09-05T01:08:10.498Z,17.34
2018-09-05T01:09:10.482Z,17.39
2018-09-05T01:10:10.487Z,17.36
2018-09-05T01:11:10.458Z,17.34
2018-09-05T01:12:10.448Z,17.30
2018-09-05T01:13:10.433Z,17.29
2018-09-05T01:14:10.424Z,17.31
2018-09-05T01:15:10.432Z,17.27
2018-09-05T01:16:10.407Z,17.26
2018-09-05T01:17:10.390Z,17.30
2018-09-05T01:18:10.385Z,17.29
2018-09-05T01:19:10.373Z,17.27
2018-09-05T01:20:10.383Z,17.30
2018-09-05T01:21:10.353Z,17.27
2018-09-05T01:22:10.341Z,17.26
2018-09-05T01:23:10.328Z,17.27
2018-09-05T01:24:10.315Z,17.23
2018-09-05T01:25:10.321Z,17.23
2018-09-05T01:26:10.299Z,17.29
2018-09-05T01:27:10.287Z,17.26
2018-09-05T01:28:10.280Z,17.16
2018-09-05T01:29:10.268Z,17.24
2018-09-05T01:30:10.272Z,17.27
2018-09-05T01:31:10.241Z,17.19
2018-09-05T01:32:10.228Z,17.15
2018-09-05T01:33:10.224Z,17.11
2018-09-05T01:34:10.217Z,17.11
2018-09-05T01:35:10.215Z,17.16
2018-09-05T01:36:10.185Z,17.06
2018-09-05T01:37:10.183Z,17.05
2018-09-05T01:38:10.179Z,17.04
2018-09-05T01:39:10.157Z,17.04
2018-09-05T01:40:10.167Z,16.94
2018-09-05T01:41:10.144Z,16.97
2018-09-05T01:42:10.125Z,16.93
2018-09-05T01:43:10.113Z,16.96
2018-09-05T01:44:10.100Z,16.94
2018-09-05T01:45:10.107Z,16.91
2018-09-05T01:46:10.080Z,16.93
2018-09-05T01:47:10.072Z,16.96
2018-09-05T01:48:10.062Z,16.86
2018-09-05T01:49:10.045Z,16.87
2018-09-05T01:50:10.054Z,16.79
2018-09-05T01:51:10.030Z,16.79
2018-09-05T01:52:10.020Z,16.71
2018-09-05T01:53:10.009Z,16.74
2018-09-05T01:54:09.999Z,16.69
2018-09-05T01:55:10.001Z,16.64
2018-09-05T01:56:09.971Z,16.71
2018-09-05T01:57:09.959Z,16.54
2018-09-05T01:58:09.952Z,16.57
2018-09-05T01:59:09.944Z,16.50
2018-09-05T02:00:09.950Z,16.42
2018-09-05T02:01:09.923Z,16.47
2018-09-05T02:02:09.911Z,16.46
2018-09-05T02:03:09.901Z,16.39
2018-09-05T02:04:09.883Z,16.42
2018-09-05T02:05:09.897Z,16.43
2018-09-05T02:06:09.866Z,16.39
2018-09-05T02:07:09.855Z,16.39
2018-09-05T02:08:09.840Z,16.42
2018-09-05T02:09:09.828Z,16.38
2018-09-05T02:10:09.840Z,16.43
2018-09-05T02:11:09.811Z,16.42
2018-09-05T02:12:09.806Z,16.36
2018-09-05T02:13:09.791Z,16.46
2018-09-05T02:14:09.781Z,16.49
2018-09-05T02:15:09.802Z,16.38
2018-09-05T02:16:09.752Z,16.42
2018-09-05T02:17:09.742Z,16.29
2018-09-05T02:18:09.733Z,16.35
2018-09-05T02:19:09.724Z,16.33
2018-09-05T02:20:09.733Z,16.32
2018-09-05T02:21:09.698Z,16.31
2018-09-05T02:22:09.689Z,16.29
2018-09-05T02:23:09.679Z,16.32
2018-09-05T02:24:09.671Z,16.31
2018-09-05T02:25:09.681Z,16.26
2018-09-05T02:26:09.649Z,16.24
2018-09-05T02:27:09.633Z,16.32
2018-09-05T02:28:09.626Z,16.24
2018-09-05T02:29:09.610Z,16.28
2018-09-05T02:30:09.621Z,16.29
2018-09-05T02:31:09.593Z,16.24
2018-09-05T02:32:09.590Z,16.28
2018-09-05T02:33:09.573Z,16.32
2018-09-05T02:34:09.564Z,16.24
2018-09-05T02:35:09.570Z,16.17
2018-09-05T02:36:09.534Z,16.28
2018-09-05T02:37:09.531Z,16.21
2018-09-05T02:38:09.517Z,16.23
2018-09-05T02:39:09.505Z,16.26
2018-09-05T02:40:09.509Z,16.24
2018-09-05T02:41:09.480Z,16.31
2018-09-05T02:42:09.470Z,16.28
2018-09-05T02:43:09.463Z,16.21
2018-09-05T02:44:09.460Z,16.26
2018-09-05T02:45:09.463Z,16.21
2018-09-05T02:46:09.429Z,16.21
2018-09-05T02:47:09.416Z,16.17
2018-09-05T02:48:09.404Z,16.15
2018-09-05T02:49:09.394Z,16.29
2018-09-05T02:50:09.402Z,16.16
2018-09-05T02:51:09.375Z,16.16
2018-09-05T02:52:09.369Z,16.29
2018-09-05T02:53:09.349Z,16.28
2018-09-05T02:54:09.340Z,16.20
2018-09-05T02:55:09.354Z,16.15
2018-09-05T02:56:09.324Z,16.15
2018-09-05T02:57:09.316Z,16.20
2018-09-05T02:58:09.301Z,16.28
2018-09-05T02:59:09.286Z,16.17
2018-09-05T03:00:09.291Z,16.12
2018-09-05T03:01:09.262Z,16.24
2018-09-05T03:02:09.262Z,16.20
2018-09-05T03:03:09.245Z,16.26
2018-09-05T03:04:09.237Z,16.21
2018-09-05T03:05:09.243Z,16.20
2018-09-05T03:06:09.213Z,16.13
2018-09-05T03:07:09.200Z,16.21
2018-09-05T03:08:09.186Z,16.17
2018-09-05T03:09:09.184Z,16.12
2018-09-05T03:10:09.186Z,16.15
2018-09-05T03:11:09.156Z,16.12
2018-09-05T03:12:09.150Z,16.10
2018-09-05T03:13:09.132Z,16.10
2018-09-05T03:14:09.124Z,16.10
2018-09-05T03:15:09.133Z,16.09
2018-09-05T03:16:09.106Z,16.10
2018-09-05T03:17:09.095Z,16.04
2018-09-05T03:18:09.082Z,16.00
2018-09-05T03:19:09.068Z,15.98
2018-09-05T03:20:09.075Z,16.04
2018-09-05T03:21:09.045Z,15.98
2018-09-05T03:22:09.041Z,16.00
2018-09-05T03:23:09.032Z,15.97
2018-09-05T03:24:09.024Z,15.90
2018-09-05T03:25:09.030Z,15.86
2018-09-05T03:26:08.992Z,15.86
2018-09-05T03:27:08.984Z,15.88
2018-09-05T03:28:08.975Z,15.79
2018-09-05T03:29:08.964Z,15.80
2018-09-05T03:30:08.955Z,15.79
2018-09-05T03:31:08.984Z,15.77
2018-09-05T03:32:08.976Z,15.72
2018-09-05T03:33:08.943Z,15.72
2018-09-05T03:34:08.906Z,15.65
2018-09-05T03:35:08.900Z,15.57
2018-09-05T03:36:08.889Z,15.52
2018-09-05T03:37:08.899Z,15.59
2018-09-05T03:38:08.864Z,15.51
2018-09-05T03:39:08.852Z,15.52
2018-09-05T03:40:08.838Z,15.52
2018-09-05T03:41:08.834Z,15.55
2018-09-05T03:42:08.840Z,15.49
2018-09-05T03:43:08.808Z,15.51
2018-09-05T03:44:08.796Z,15.49
2018-09-05T03:45:08.784Z,15.35
2018-09-05T03:46:08.774Z,15.37
2018-09-05T03:47:08.785Z,15.36
2018-09-05T03:48:08.759Z,15.25
2018-09-05T03:49:08.751Z,15.25
2018-09-05T03:50:08.734Z,15.28
2018-09-05T03:51:08.725Z,15.22
2018-09-05T03:52:08.726Z,15.29
2018-09-05T03:53:08.697Z,15.27
2018-09-05T03:54:08.689Z,15.22
2018-09-05T03:55:08.680Z,15.24
2018-09-05T03:56:08.672Z,15.18
2018-09-05T03:57:08.675Z,15.24
2018-09-05T03:58:08.644Z,15.21
2018-09-05T03:59:08.636Z,15.25
2018-09-05T04:00:08.628Z,15.24
2018-09-05T04:01:08.629Z,15.22
2018-09-05T04:02:08.631Z,15.27
2018-09-05T04:03:08.592Z,15.25
2018-09-05T04:04:08.578Z,15.29
2018-09-05T04:05:08.583Z,15.24
2018-09-05T04:06:08.562Z,15.19
2018-09-05T04:07:08.575Z,15.15
2018-09-05T04:08:08.544Z,15.19
2018-09-05T04:09:08.531Z,15.10
2018-09-05T04:10:08.519Z,15.10
2018-09-05T04:11:08.508Z,15.09
2018-09-05T04:12:08.594Z,15.17
2018-09-05T04:13:08.505Z,15.09
2018-09-05T04:14:08.478Z,15.09
2018-09-05T04:15:08.461Z,15.09
2018-09-05T04:16:08.448Z,15.07
2018-09-05T04:17:08.437Z,15.09
2018-09-05T04:18:08.447Z,15.15
2018-09-05T04:19:08.421Z,15.11
2018-09-05T04:20:08.415Z,15.04
2018-09-05T04:21:08.399Z,15.00
2018-09-05T04:22:08.456Z,14.89
2018-09-05T04:23:08.391Z,14.99
2018-09-05T04:24:08.366Z,15.04
2018-09-05T04:25:08.361Z,14.91
2018-09-05T04:26:08.341Z,14.99
2018-09-05T04:27:08.336Z,14.89
2018-09-05T04:28:08.342Z,14.94
2018-09-05T04:29:08.313Z,14.94
2018-09-05T04:30:08.298Z,14.88
2018-09-05T04:31:08.296Z,14.86
2018-09-05T04:32:08.281Z,14.84
2018-09-05T04:33:08.289Z,14.81
2018-09-05T04:34:08.264Z,14.73
2018-09-05T04:35:08.244Z,14.73
2018-09-05T04:36:08.235Z,14.88
2018-09-05T04:37:08.224Z,14.77
2018-09-05T04:38:08.230Z,14.77
2018-09-05T04:39:08.210Z,14.77
2018-09-05T04:40:08.194Z,14.73
2018-09-05T04:41:08.183Z,14.81
2018-09-05T04:42:08.175Z,14.82
2018-09-05T04:43:08.191Z,14.85
2018-09-05T04:44:08.149Z,14.73
2018-09-05T04:45:08.204Z,14.70
2018-09-05T04:46:08.132Z,14.73
2018-09-05T04:47:08.121Z,14.73
2018-09-05T04:48:08.127Z,14.66
2018-09-05T04:49:08.119Z,14.78
2018-09-05T04:50:08.083Z,14.70
2018-09-05T04:51:08.079Z,14.73
2018-09-05T04:52:08.065Z,14.73
2018-09-05T04:53:08.074Z,14.77
2018-09-05T04:54:08.051Z,14.69
2018-09-05T04:55:08.029Z,14.69
2018-09-05T04:56:08.021Z,14.70
2018-09-05T04:57:08.009Z,14.78
2018-09-05T04:58:08.019Z,14.65
2018-09-05T04:59:07.992Z,14.78
2018-09-05T05:00:07.979Z,14.78
2018-09-05T05:01:07.968Z,14.66
2018-09-05T05:02:07.953Z,14.63
2018-09-05T05:03:07.970Z,14.66
2018-09-05T05:04:07.946Z,14.68
2018-09-05T05:05:07.926Z,14.69
2018-09-05T05:06:07.917Z,14.68
2018-09-05T05:07:07.899Z,14.66
2018-09-05T05:08:07.908Z,14.62
2018-09-05T05:09:07.880Z,14.55
2018-09-05T05:10:07.877Z,14.58
2018-09-05T05:11:07.865Z,14.55
2018-09-05T05:12:07.851Z,14.54
2018-09-05T05:13:07.863Z,14.59
2018-09-05T05:14:07.833Z,14.54
2018-09-05T05:15:07.816Z,14.54
2018-09-05T05:16:07.808Z,14.63
2018-09-05T05:17:07.796Z,14.58
2018-09-05T05:18:07.812Z,14.65
2018-09-05T05:19:07.772Z,14.58
2018-09-05T05:20:07.766Z,14.51
2018-09-05T05:21:07.751Z,14.65
2018-09-05T05:22:07.744Z,14.70
2018-09-05T05:23:07.760Z,14.60
2018-09-05T05:24:07.738Z,14.65
2018-09-05T05:25:07.710Z,14.63
2018-09-05T05:26:07.730Z,14.54
2018-09-05T05:27:07.685Z,14.59
2018-09-05T05:28:07.683Z,14.54
2018-09-05T05:29:07.683Z,14.69
2018-09-05T05:30:07.651Z,14.66
2018-09-05T05:31:07.653Z,14.84
2018-09-05T05:32:07.638Z,14.81
2018-09-05T05:33:07.622Z,14.78
2018-09-05T05:34:07.634Z,14.84
2018-09-05T05:35:07.629Z,14.82
2018-09-05T05:36:07.590Z,14.82
2018-09-05T05:37:07.581Z,14.86
2018-09-05T05:38:07.570Z,14.86
2018-09-05T05:39:07.571Z,14.82
2018-09-05T05:40:07.605Z,14.92
2018-09-05T05:41:07.535Z,15.00
2018-09-05T05:42:07.522Z,15.00
2018-09-05T05:43:07.520Z,14.99
2018-09-05T05:44:07.981Z,14.94
2018-09-05T05:45:07.494Z,15.02
2018-09-05T05:46:07.493Z,15.07
2018-09-05T05:47:07.503Z,15.11
2018-09-05T05:48:07.461Z,15.17
2018-09-05T05:49:07.469Z,15.18
2018-09-05T05:50:07.444Z,15.14
2018-09-05T05:51:07.424Z,15.18
2018-09-05T05:52:07.414Z,15.21
2018-09-05T05:53:07.405Z,15.22
2018-09-05T05:54:07.409Z,15.25
2018-09-05T05:55:07.474Z,15.27
2018-09-05T05:56:07.374Z,15.36
2018-09-05T05:57:07.362Z,15.33
2018-09-05T05:58:07.355Z,15.29
2018-09-05T05:59:07.360Z,15.36
2018-09-05T06:00:07.331Z,15.37
2018-09-05T06:01:07.363Z,15.43
2018-09-05T06:02:07.307Z,15.47
2018-09-05T06:03:07.302Z,15.46
2018-09-05T06:04:07.313Z,15.49
2018-09-05T06:05:07.280Z,15.49
2018-09-05T06:06:07.356Z,15.58
2018-09-05T06:07:07.290Z,15.62
2018-09-05T06:08:07.278Z,15.68
2018-09-05T06:09:07.234Z,15.67
2018-09-05T06:10:07.270Z,15.68
2018-09-05T06:11:07.207Z,15.70
2018-09-05T06:12:07.252Z,15.76
2018-09-05T06:13:07.191Z,15.67
2018-09-05T06:14:07.186Z,15.83
2018-09-05T06:15:07.188Z,15.83
2018-09-05T06:16:07.157Z,15.94
2018-09-05T06:17:07.151Z,16.05
2018-09-05T06:18:07.141Z,16.05
2018-09-05T06:19:07.124Z,16.04
2018-09-05T06:20:07.134Z,16.15
2018-09-05T06:21:07.150Z,16.13
2018-09-05T06:22:07.105Z,16.10
2018-09-05T06:23:07.106Z,16.20
2018-09-05T06:24:07.121Z,16.28
2018-09-05T06:25:07.075Z,16.13
2018-09-05T06:26:07.045Z,16.24
2018-09-05T06:27:07.043Z,16.33
2018-09-05T06:28:07.157Z,16.31
2018-09-05T06:29:07.160Z,16.38
2018-09-05T06:30:07.029Z,16.38
2018-09-05T06:31:07.220Z,16.43
2018-09-05T06:32:06.981Z,16.49
2018-09-05T06:33:06.970Z,16.53
2018-09-05T06:34:07.008Z,16.65
2018-09-05T06:35:06.978Z,16.83
2018-09-05T06:36:06.939Z,16.79
2018-09-05T06:37:06.927Z,16.90
2018-09-05T06:38:06.921Z,17.04
2018-09-05T06:39:06.988Z,17.06
2018-09-05T06:40:06.898Z,17.26
2018-09-05T06:41:06.905Z,17.30
2018-09-05T06:42:06.886Z,17.30
2018-09-05T06:43:06.860Z,17.34
2018-09-05T06:44:06.852Z,17.39
2018-09-05T06:45:06.958Z,17.48
2018-09-05T06:46:06.845Z,17.52
2018-09-05T06:47:06.831Z,17.63
2018-09-05T06:48:06.811Z,17.59
2018-09-05T06:49:06.833Z,17.71
2018-09-05T06:50:06.825Z,17.78
2018-09-05T06:51:06.830Z,17.83
2018-09-05T06:52:06.765Z,17.82
2018-09-05T06:53:06.758Z,17.89
2018-09-05T06:54:06.754Z,17.86
2018-09-05T06:55:06.754Z,17.92
2018-09-05T06:56:06.744Z,18.00
2018-09-05T06:57:06.712Z,17.97
2018-09-05T06:58:06.705Z,18.07
2018-09-05T06:59:06.697Z,18.11
2018-09-05T07:00:06.683Z,18.11
2018-09-05T07:01:06.690Z,18.15
2018-09-05T07:02:06.796Z,18.03
2018-09-05T07:03:06.645Z,18.13
2018-09-05T07:04:06.640Z,18.20
2018-09-05T07:05:06.650Z,18.26
2018-09-05T07:06:06.634Z,18.25
2018-09-05T07:07:06.708Z,18.34
2018-09-05T07:08:06.600Z,18.35
2018-09-05T07:09:06.614Z,18.49
2018-09-05T07:10:06.664Z,18.47
2018-09-05T07:11:06.625Z,18.50
2018-09-05T07:12:06.551Z,18.66
2018-09-05T07:13:06.542Z,18.65
2018-09-05T07:14:06.590Z,18.68
2018-09-05T07:15:06.519Z,18.60
2018-09-05T07:16:06.725Z,18.71
2018-09-05T07:17:06.497Z,18.75
2018-09-05T07:18:06.489Z,18.92
2018-09-05T07:19:06.479Z,18.86
2018-09-05T07:20:06.463Z,18.95
2018-09-05T07:21:06.470Z,19.09
2018-09-05T07:22:06.569Z,19.24
2018-09-05T07:23:06.427Z,19.26
2018-09-05T07:24:06.414Z,19.37
2018-09-05T07:25:06.508Z,19.31
2018-09-05T07:26:06.418Z,19.47
2018-09-05T07:27:06.382Z,19.45
2018-09-05T07:28:06.376Z,19.49
2018-09-05T07:29:06.362Z,19.52
2018-09-05T07:30:06.347Z,19.59
2018-09-05T07:31:06.382Z,19.59
2018-09-05T07:32:06.332Z,19.59
2018-09-05T07:33:06.317Z,19.67
2018-09-05T07:34:06.310Z,19.69
2018-09-05T07:35:06.295Z,19.74
2018-09-05T07:36:06.302Z,19.82
2018-09-05T07:37:06.273Z,19.86
2018-09-05T07:38:06.267Z,19.84
2018-09-05T07:39:06.258Z,19.79
2018-09-05T07:40:06.244Z,19.86
2018-09-05T07:41:06.312Z,19.91
2018-09-05T07:42:06.249Z,20.02
2018-09-05T07:43:06.211Z,20.10
2018-09-05T07:44:06.198Z,20.16
2018-09-05T07:45:06.187Z,20.22
2018-09-05T07:46:06.204Z,20.19
2018-09-05T07:47:06.161Z,20.31
2018-09-05T07:48:06.153Z,20.37
2018-09-05T07:49:06.143Z,20.34
2018-09-05T07:50:06.136Z,20.43
2018-09-05T07:51:06.226Z,20.48
2018-09-05T07:52:06.205Z,20.43
2018-09-05T07:53:06.142Z,20.48
2018-09-05T07:54:06.094Z,20.43
2018-09-05T07:55:06.075Z,20.51
2018-09-05T07:56:06.094Z,20.52
2018-09-05T07:57:06.069Z,20.51
2018-09-05T07:58:06.050Z,20.50
2018-09-05T07:59:06.032Z,20.58
2018-09-05T08:00:06.024Z,20.55
2018-09-05T08:01:06.017Z,20.56
2018-09-05T08:02:06.002Z,20.66
2018-09-05T08:03:05.996Z,20.60
2018-09-05T08:04:05.983Z,20.60
2018-09-05T08:05:05.975Z,20.65
2018-09-05T08:06:05.965Z,20.69
2018-09-05T08:07:05.967Z,20.70
2018-09-05T08:08:05.940Z,20.75
2018-09-05T08:09:05.928Z,20.80
2018-09-05T08:10:05.934Z,20.85
2018-09-05T08:11:05.912Z,20.85
2018-09-05T08:12:05.921Z,20.95
2018-09-05T08:13:05.910Z,21.07
2018-09-05T08:14:05.871Z,21.12
2018-09-05T08:15:05.867Z,21.15
2018-09-05T08:16:05.857Z,21.24
2018-09-05T08:17:05.865Z,21.27
2018-09-05T08:18:05.889Z,21.24
2018-09-05T08:19:05.818Z,21.32
2018-09-05T08:20:05.812Z,21.37
2018-09-05T08:21:05.799Z,21.42
2018-09-05T08:22:05.802Z,21.64
2018-09-05T08:23:05.781Z,21.64
2018-09-05T08:24:05.842Z,21.83
2018-09-05T08:25:05.766Z,21.89
2018-09-05T08:26:05.766Z,22.00
2018-09-05T08:27:05.749Z,22.04
2018-09-05T08:28:05.755Z,22.10
2018-09-05T08:29:05.779Z,22.10
2018-09-05T08:30:05.762Z,22.23
2018-09-05T08:31:05.688Z,22.23
2018-09-05T08:32:05.698Z,22.25
2018-09-05T08:33:05.671Z,22.32
2018-09-05T08:34:05.684Z,22.35
2018-09-05T08:35:05.895Z,22.50
2018-09-05T08:36:05.954Z,22.47
2018-09-05T08:37:05.882Z,22.39
2018-09-05T08:38:05.706Z,22.53
2018-09-05T08:39:05.612Z,22.54
2018-09-05T08:40:05.599Z,22.55
2018-09-05T08:41:05.647Z,22.63
2018-09-05T08:42:05.678Z,22.68
2018-09-05T08:43:05.563Z,22.78
2018-09-05T08:44:05.700Z,22.73
2018-09-05T08:45:05.786Z,22.81
2018-09-05T08:46:05.749Z,22.85
2018-09-05T08:47:05.536Z,22.94
2018-09-05T08:48:05.548Z,23.05
2018-09-05T08:49:05.521Z,23.09
2018-09-05T08:50:05.505Z,23.13
2018-09-05T08:51:05.481Z,23.24
2018-09-05T08:52:05.485Z,23.31
2018-09-05T08:53:05.456Z,23.31
2018-09-05T08:54:05.448Z,23.37
2018-09-05T08:55:05.489Z,23.34
2018-09-05T08:56:05.421Z,23.48
2018-09-05T08:57:05.437Z,23.54
2018-09-05T08:58:05.403Z,23.59
2018-09-05T08:59:05.396Z,23.68
2018-09-05T09:00:05.380Z,23.62
2018-09-05T09:01:05.367Z,23.62
2018-09-05T09:02:05.379Z,23.61
2018-09-05T09:03:05.392Z,23.69
2018-09-05T09:04:05.343Z,23.73
2018-09-05T09:05:05.372Z,23.77
2018-09-05T09:06:05.337Z,23.80
2018-09-05T09:07:05.299Z,23.81
2018-09-05T09:08:05.295Z,23.76
2018-09-05T09:09:05.283Z,23.84
2018-09-05T09:10:05.268Z,23.88
2018-09-05T09:11:05.265Z,23.74
2018-09-05T09:12:05.256Z,23.93
2018-09-05T09:13:05.263Z,23.95
2018-09-05T09:14:05.233Z,24.02
2018-09-05T09:15:05.216Z,24.06
2018-09-05T09:16:05.236Z,24.05
2018-09-05T09:17:05.245Z,24.18
2018-09-05T09:18:05.236Z,24.32
2018-09-05T09:19:05.173Z,24.45
2018-09-05T09:20:05.166Z,24.54
2018-09-05T09:21:05.154Z,24.54
2018-09-05T09:22:05.143Z,24.65
2018-09-05T09:23:05.157Z,24.57
2018-09-05T09:24:05.128Z,24.55
2018-09-05T09:25:05.113Z,24.54
2018-09-05T09:26:05.106Z,24.61
2018-09-05T09:27:05.089Z,24.48
2018-09-05T09:28:05.254Z,24.61
2018-09-05T09:29:05.069Z,24.50
2018-09-05T09:30:05.055Z,24.58
2018-09-05T09:31:05.051Z,24.55
2018-09-05T09:32:05.039Z,24.53
2018-09-05T09:33:05.044Z,24.65
2018-09-05T09:34:05.013Z,24.68
2018-09-05T09:35:05.019Z,24.69
2018-09-05T09:36:05.015Z,24.74
2018-09-05T09:37:05.006Z,24.73
2018-09-05T09:38:04.994Z,24.74
2018-09-05T09:39:04.960Z,24.69
2018-09-05T09:40:04.952Z,24.74
2018-09-05T09:41:04.941Z,24.81
2018-09-05T09:42:04.928Z,24.86
2018-09-05T09:43:04.942Z,24.85
2018-09-05T09:44:04.913Z,25.01
2018-09-05T09:45:04.900Z,25.03
2018-09-05T09:46:04.893Z,25.01
2018-09-05T09:47:04.882Z,24.98
2018-09-05T09:48:04.886Z,25.03
2018-09-05T09:49:04.860Z,25.07
2018-09-05T09:50:04.852Z,25.26
2018-09-05T09:51:04.843Z,25.26
2018-09-05T09:52:04.831Z,25.33
2018-09-05T09:53:04.834Z,25.32
2018-09-05T09:54:04.804Z,25.40
2018-09-05T09:55:04.802Z,25.40
2018-09-05T09:56:04.788Z,25.35
2018-09-05T09:57:04.777Z,25.40
2018-09-05T09:58:04.813Z,25.54
2018-09-05T09:59:04.754Z,25.46
2018-09-05T10:00:04.743Z,25.58
2018-09-05T10:01:04.731Z,25.60
2018-09-05T10:02:04.720Z,25.60
2018-09-05T10:03:04.741Z,25.58
2018-09-05T10:04:04.777Z,25.47
2018-09-05T10:05:04.692Z,25.48
2018-09-05T10:06:04.676Z,25.66
2018-09-05T10:07:04.724Z,25.58
2018-09-05T10:08:04.658Z,25.62
2018-09-05T10:09:04.652Z,25.68
2018-09-05T10:10:04.878Z,25.72
2018-09-05T10:11:04.620Z,25.85
2018-09-05T10:12:04.612Z,25.98
2018-09-05T10:13:04.601Z,26.00
2018-09-05T10:14:04.613Z,26.03
2018-09-05T10:15:04.592Z,26.00
2018-09-05T10:16:04.574Z,25.91
2018-09-05T10:17:04.568Z,25.93
2018-09-05T10:18:04.559Z,25.95
2018-09-05T10:19:04.555Z,26.02
2018-09-05T10:20:04.532Z,26.16
2018-09-05T10:21:04.574Z,26.02
2018-09-05T10:22:04.508Z,26.16
2018-09-05T10:23:04.491Z,26.10
2018-09-05T10:24:04.481Z,26.10
2018-09-05T10:25:04.492Z,26.15
2018-09-05T10:26:04.457Z,26.18
2018-09-05T10:27:04.454Z,26.19
2018-09-05T10:28:04.440Z,26.23
2018-09-05T10:29:04.429Z,26.37
2018-09-05T10:30:04.439Z,26.47
2018-09-05T10:31:04.408Z,26.51
2018-09-05T10:32:04.405Z,26.48
2018-09-05T10:33:04.385Z,26.53
2018-09-05T10:34:04.372Z,26.78
2018-09-05T10:35:04.389Z,26.97
2018-09-05T10:36:04.356Z,27.03
2018-09-05T10:37:04.350Z,27.17
2018-09-05T10:38:04.364Z,27.17
2018-09-05T10:39:04.363Z,27.17
2018-09-05T10:40:04.361Z,27.11
2018-09-05T10:41:04.337Z,26.97
2018-09-05T10:42:04.327Z,26.85
2018-09-05T10:43:04.322Z,26.95
2018-09-05T10:44:04.290Z,27.02
2018-09-05T10:45:04.308Z,26.96
2018-09-05T10:46:04.299Z,27.08
2018-09-05T10:47:04.280Z,27.12
2018-09-05T10:48:04.261Z,27.17
2018-09-05T10:49:04.272Z,27.15
2018-09-05T10:50:04.264Z,27.17
2018-09-05T10:51:04.257Z,27.07
2018-09-05T10:52:04.235Z,26.83
2018-09-05T10:53:04.224Z,26.80
2018-09-05T10:54:04.227Z,26.81
2018-09-05T10:55:04.184Z,26.80
2018-09-05T10:56:04.249Z,26.90
2018-09-05T10:57:04.190Z,26.93
2018-09-05T10:58:04.222Z,26.99
2018-09-05T10:59:04.171Z,26.96
2018-09-05T11:00:04.183Z,27.14
2018-09-05T11:01:04.207Z,27.21
2018-09-05T11:02:04.166Z,27.15
2018-09-05T11:03:04.154Z,27.21
2018-09-05T11:04:04.190Z,27.36
2018-09-05T11:05:04.094Z,27.45
2018-09-05T11:06:04.163Z,27.54
2018-09-05T11:07:04.083Z,27.70
2018-09-05T11:08:04.075Z,27.68
2018-09-05T11:09:04.063Z,27.78
2018-09-05T11:10:04.057Z,27.75
2018-09-05T11:11:04.072Z,27.83
2018-09-05T11:12:04.034Z,27.90
2018-09-05T11:13:04.033Z,27.96
2018-09-05T11:14:03.979Z,28.11
2018-09-05T11:15:03.958Z,28.14
2018-09-05T11:16:03.973Z,28.27
2018-09-05T11:17:03.952Z,28.02
2018-09-05T11:18:03.916Z,27.89
2018-09-05T11:19:03.934Z,28.01
2018-09-05T11:20:03.897Z,27.96
2018-09-05T11:21:03.910Z,27.95
2018-09-05T11:22:03.882Z,27.95
2018-09-05T11:23:03.863Z,27.92
2018-09-05T11:24:03.854Z,27.98
2018-09-05T11:25:03.848Z,27.90
2018-09-05T11:26:03.839Z,28.05
2018-09-05T11:27:03.830Z,28.11
2018-09-05T11:28:03.813Z,28.25
2018-09-05T11:29:03.877Z,28.25
2018-09-05T11:30:03.790Z,28.32
2018-09-05T11:31:03.795Z,28.41
2018-09-05T11:32:03.796Z,28.54
2018-09-05T11:33:03.777Z,28.56
2018-09-05T11:34:03.770Z,28.57
2018-09-05T11:35:03.740Z,28.81
2018-09-05T11:36:03.730Z,28.98
2018-09-05T11:37:03.818Z,28.96
2018-09-05T11:38:03.740Z,28.98
2018-09-05T11:39:03.707Z,29.13
2018-09-05T11:40:03.709Z,29.32
2018-09-05T11:41:03.693Z,29.49
2018-09-05T11:42:03.690Z,29.76
2018-09-05T11:43:03.684Z,29.78
2018-09-05T11:44:03.650Z,29.78
2018-09-05T11:45:03.650Z,29.86
2018-09-05T11:46:03.635Z,30.05
2018-09-05T11:47:03.632Z,30.40
2018-09-05T11:48:03.608Z,30.50
2018-09-05T11:49:03.615Z,30.69
2018-09-05T11:50:03.585Z,30.72
2018-09-05T11:51:03.584Z,30.66
2018-09-05T11:52:03.584Z,30.77
2018-09-05T11:53:03.565Z,30.92
2018-09-05T11:54:03.548Z,31.18
2018-09-05T11:55:03.543Z,31.25
2018-09-05T11:56:03.533Z,31.59
2018-09-05T11:57:03.548Z,31.58
2018-09-05T11:58:03.511Z,31.70
2018-09-05T11:59:03.531Z,31.58
2018-09-05T12:00:03.497Z,31.18
2018-09-05T12:01:03.469Z,31.12
2018-09-05T12:02:03.474Z,31.42
2018-09-05T12:03:03.453Z,31.40
2018-09-05T12:04:03.441Z,31.49
2018-09-05T12:05:03.505Z,31.24
2018-09-05T12:06:03.454Z,31.10
2018-09-05T12:07:03.421Z,31.17
2018-09-05T12:08:03.397Z,31.18
2018-09-05T12:09:03.391Z,31.33
2018-09-05T12:10:03.384Z,31.58
2018-09-05T12:11:03.376Z,31.99
2018-09-05T12:12:03.404Z,32.12
2018-09-05T12:13:03.354Z,32.11
2018-09-05T12:14:03.331Z,32.29
2018-09-05T12:15:03.328Z,32.21
2018-09-05T12:16:03.324Z,32.29
2018-09-05T12:17:03.320Z,32.31
2018-09-05T12:18:03.295Z,32.11
2018-09-05T12:19:03.288Z,31.77
2018-09-05T12:20:03.283Z,31.77
2018-09-05T12:21:03.262Z,32.00
2018-09-05T12:22:03.277Z,32.34
2018-09-05T12:23:03.249Z,32.51
2018-09-05T12:24:03.235Z,32.90
2018-09-05T12:25:03.222Z,32.92
2018-09-05T12:26:03.243Z,33.28
2018-09-05T12:27:03.211Z,33.42
2018-09-05T12:28:03.185Z,33.24
2018-09-05T12:29:03.196Z,33.30
2018-09-05T12:30:03.173Z,33.37
2018-09-05T12:31:03.152Z,33.43
2018-09-05T12:32:03.180Z,33.39
2018-09-05T12:33:03.146Z,33.40
2018-09-05T12:34:03.124Z,33.14
2018-09-05T12:35:03.119Z,33.30
2018-09-05T12:36:03.107Z,33.02
2018-09-05T12:37:03.114Z,32.80
2018-09-05T12:38:03.104Z,32.63
2018-09-05T12:39:03.071Z,31.89
2018-09-05T12:40:03.063Z,31.40
2018-09-05T12:41:03.053Z,31.12
2018-09-05T12:42:03.041Z,30.96
2018-09-05T12:43:03.055Z,30.83
2018-09-05T12:44:03.026Z,30.81
2018-09-05T12:45:03.012Z,30.73
2018-09-05T12:46:03.024Z,30.92
2018-09-05T12:47:02.996Z,31.17
2018-09-05T12:48:03.005Z,31.34
2018-09-05T12:49:02.983Z,31.24
2018-09-05T12:50:02.966Z,31.59
2018-09-05T12:51:02.949Z,31.61
2018-09-05T12:52:02.943Z,32.00